createdAt,value
2023-02-22T00:00:51.912Z,81.31
2023-02-22T00:01:48.254Z,81.30
2023-02-22T00:02:43.425Z,81.24
2023-02-22T00:03:39.248Z,81.16
2023-02-22T00:04:34.465Z,81.04
2023-02-22T00:05:29.662Z,81.03
2023-02-22T00:06:25.460Z,81.18
2023-02-22T00:07:20.725Z,81.31
2023-02-22T00:08:16.409Z,81.28
2023-02-22T00:09:11.522Z,81.47
2023-02-22T00:10:06.868Z,81.65
2023-02-22T00:11:02.536Z,81.83
2023-02-22T00:11:57.675Z,81.88
2023-02-22T00:12:52.844Z,81.81
2023-02-22T00:13:49.224Z,81.81
2023-02-22T00:14:44.333Z,81.70
2023-02-22T00:15:40.146Z,81.75
2023-02-22T00:16:35.289Z,81.79
2023-02-22T00:17:30.463Z,81.71
2023-02-22T00:18:26.295Z,81.72
2023-02-22T00:19:21.676Z,81.60
2023-02-22T00:20:18.747Z,81.59
2023-02-22T00:21:12.605Z,81.70
2023-02-22T00:22:07.726Z,81.81
2023-02-22T00:23:02.899Z,82.10
2023-02-22T00:23:58.030Z,82.21
2023-02-22T00:24:53.025Z,82.21
2023-02-22T00:25:48.006Z,82.34
2023-02-22T00:26:43.120Z,82.27
2023-02-22T00:27:38.114Z,82.25
2023-02-22T00:28:33.326Z,82.14
2023-02-22T00:29:28.185Z,82.06
2023-02-22T00:30:23.342Z,81.84
2023-02-22T00:31:18.745Z,81.53
2023-02-22T00:32:13.540Z,81.58
2023-02-22T00:33:08.533Z,81.62
2023-02-22T00:34:03.630Z,81.57
2023-02-22T00:34:58.660Z,81.53
2023-02-22T00:35:55.254Z,81.61
2023-02-22T00:36:50.361Z,81.65
2023-02-22T00:37:45.406Z,81.67
2023-02-22T00:38:41.529Z,81.72
2023-02-22T00:39:35.698Z,81.82
2023-02-22T00:40:30.809Z,81.95
2023-02-22T00:41:25.933Z,81.90
2023-02-22T00:42:20.916Z,81.82
2023-02-22T00:43:16.166Z,81.79
2023-02-22T00:44:11.124Z,81.83
2023-02-22T00:45:06.265Z,81.83
2023-02-22T00:46:01.350Z,81.62
2023-02-22T00:46:56.369Z,81.54
2023-02-22T00:47:55.616Z,81.40
2023-02-22T00:48:50.725Z,81.30
2023-02-22T00:49:45.858Z,81.33
2023-02-22T00:50:40.839Z,81.40
2023-02-22T00:51:36.172Z,81.50
2023-02-22T00:52:31.392Z,81.53
2023-02-22T00:53:26.471Z,81.72
2023-02-22T00:54:21.507Z,82.03
2023-02-22T00:55:16.469Z,82.22
2023-02-22T00:56:11.630Z,82.27
2023-02-22T00:57:10.349Z,82.28
2023-02-22T00:58:05.450Z,82.39
2023-02-22T00:59:00.590Z,82.57
2023-02-22T00:59:55.909Z,82.67
2023-02-22T01:00:51.193Z,82.79
2023-02-22T01:01:46.205Z,82.99
2023-02-22T01:02:41.408Z,82.97
2023-02-22T01:03:36.500Z,82.99
2023-02-22T01:04:31.371Z,83.04
2023-02-22T01:05:26.418Z,83.12
2023-02-22T01:06:21.390Z,83.18
2023-02-22T01:07:16.456Z,83.33
2023-02-22T01:08:11.614Z,83.44
2023-02-22T01:09:06.613Z,83.52
2023-02-22T01:10:01.623Z,83.62
2023-02-22T01:10:57.101Z,83.72
2023-02-22T01:11:51.849Z,83.77
2023-02-22T01:12:47.034Z,83.65
2023-02-22T01:13:42.063Z,83.55
2023-02-22T01:14:37.092Z,83.48
2023-02-22T01:15:32.062Z,83.36
2023-02-22T01:16:27.363Z,83.35
2023-02-22T01:17:22.553Z,83.23
2023-02-22T01:18:17.503Z,83.26
2023-02-22T01:19:12.922Z,83.22
2023-02-22T01:20:07.564Z,83.22
2023-02-22T01:21:02.629Z,83.06
2023-02-22T01:21:57.750Z,83.06
2023-02-22T01:22:52.986Z,82.82
2023-02-22T01:23:47.947Z,82.63
2023-02-22T01:24:42.897Z,82.54
2023-02-22T01:25:38.038Z,82.46
2023-02-22T01:26:34.397Z,82.36
2023-02-22T01:27:29.555Z,82.21
2023-02-22T01:28:25.367Z,82.26
2023-02-22T01:29:20.717Z,82.32
2023-02-22T01:30:15.727Z,82.48
2023-02-22T01:31:11.713Z,82.63
2023-02-22T01:32:06.799Z,82.80
2023-02-22T01:33:02.605Z,83.11
2023-02-22T01:33:57.664Z,83.33
2023-02-22T01:34:53.046Z,83.54
2023-02-22T01:35:48.659Z,83.74
2023-02-22T01:36:43.828Z,83.82
2023-02-22T01:37:38.909Z,83.96
2023-02-22T01:38:35.262Z,84.08
2023-02-22T01:39:30.391Z,84.17
2023-02-22T01:40:26.240Z,84.24
2023-02-22T01:41:21.327Z,84.30
2023-02-22T01:42:16.449Z,84.36
2023-02-22T01:43:12.254Z,84.37
2023-02-22T01:44:07.525Z,84.35
2023-02-22T01:45:03.431Z,84.34
2023-02-22T01:45:58.570Z,84.39
2023-02-22T01:46:53.671Z,84.45
2023-02-22T01:47:49.517Z,84.50
2023-02-22T01:48:44.608Z,84.60
2023-02-22T01:49:40.039Z,84.76
2023-02-22T01:50:36.031Z,84.79
2023-02-22T01:51:31.289Z,84.85
2023-02-22T01:52:27.371Z,84.87
2023-02-22T01:53:22.195Z,84.66
2023-02-22T01:54:17.430Z,84.47
2023-02-22T01:55:13.128Z,84.23
2023-02-22T01:56:08.267Z,84.04
2023-02-22T01:57:04.222Z,84.00
2023-02-22T01:57:59.165Z,83.97
2023-02-22T01:58:54.689Z,83.97
2023-02-22T01:59:50.365Z,83.95
2023-02-22T02:00:45.649Z,83.89
2023-02-22T02:01:40.756Z,83.92
2023-02-22T02:02:37.129Z,84.01
2023-02-22T02:03:32.269Z,84.20
2023-02-22T02:04:28.103Z,84.29
2023-02-22T02:05:23.321Z,84.33
2023-02-22T02:06:18.518Z,84.40
2023-02-22T02:07:14.221Z,84.46
2023-02-22T02:08:09.390Z,84.53
2023-02-22T02:09:05.301Z,84.70
2023-02-22T02:10:00.413Z,84.84
2023-02-22T02:10:55.671Z,85.03
2023-02-22T02:11:51.349Z,84.98
2023-02-22T02:12:46.475Z,84.84
2023-02-22T02:13:41.690Z,84.59
2023-02-22T02:14:37.912Z,84.27
2023-02-22T02:15:33.170Z,83.94
2023-02-22T02:16:29.015Z,83.62
2023-02-22T02:17:24.158Z,83.41
2023-02-22T02:18:19.306Z,83.40
2023-02-22T02:19:15.141Z,83.41
2023-02-22T02:20:10.240Z,83.51
2023-02-22T02:21:06.193Z,83.60
2023-02-22T02:23:28.041Z,84.56
2023-02-22T02:24:23.013Z,84.45
2023-02-22T02:25:18.123Z,84.50
2023-02-22T02:26:13.240Z,84.53
2023-02-22T02:27:08.298Z,84.50
2023-02-22T02:28:03.504Z,84.51
2023-02-22T02:28:58.722Z,84.52
2023-02-22T02:29:53.805Z,84.48
2023-02-22T02:30:48.892Z,84.54
2023-02-22T02:31:44.074Z,84.55
2023-02-22T02:32:39.172Z,84.59
2023-02-22T02:33:34.629Z,84.68
2023-02-22T02:34:29.586Z,84.72
2023-02-22T02:35:24.796Z,84.82
2023-02-22T02:36:19.877Z,84.85
2023-02-22T02:37:15.098Z,84.82
2023-02-22T02:38:10.205Z,84.79
2023-02-22T02:39:05.470Z,84.76
2023-02-22T02:40:00.563Z,84.76
2023-02-22T02:40:55.648Z,84.72
2023-02-22T02:41:50.722Z,84.75
2023-02-22T02:42:45.974Z,84.78
2023-02-22T02:43:41.162Z,84.73
2023-02-22T02:44:36.295Z,84.77
2023-02-22T02:45:31.355Z,84.77
2023-02-22T02:46:26.459Z,84.77
2023-02-22T02:47:21.683Z,84.83
2023-02-22T02:48:16.798Z,84.89
2023-02-22T02:49:11.897Z,84.94
2023-02-22T02:50:07.113Z,85.04
2023-02-22T02:51:02.174Z,85.11
2023-02-22T02:51:57.291Z,85.19
2023-02-22T02:52:52.387Z,85.31
2023-02-22T02:53:47.860Z,85.48
2023-02-22T02:54:42.809Z,85.55
2023-02-22T02:55:38.019Z,85.64
2023-02-22T02:56:33.233Z,85.64
2023-02-22T02:57:28.301Z,85.53
2023-02-22T02:58:23.377Z,85.35
2023-02-22T02:59:18.490Z,85.33
2023-02-22T03:00:13.546Z,85.21
2023-02-22T03:01:08.776Z,85.00
2023-02-22T03:02:04.821Z,84.75
2023-02-22T03:02:59.114Z,84.57
2023-02-22T03:03:54.306Z,84.15
2023-02-22T03:04:49.410Z,83.92
2023-02-22T03:05:44.510Z,83.88
2023-02-22T03:06:39.616Z,83.88
2023-02-22T03:07:34.880Z,84.01
2023-02-22T03:08:29.799Z,83.96
2023-02-22T03:09:24.883Z,84.04
2023-02-22T03:10:20.116Z,84.14
2023-02-22T03:11:15.744Z,84.16
2023-02-22T03:12:10.381Z,84.22
2023-02-22T03:13:08.617Z,84.39
2023-02-22T03:14:01.256Z,84.58
2023-02-22T03:14:55.836Z,84.78
2023-02-22T03:15:50.928Z,85.02
2023-02-22T03:16:46.065Z,85.15
2023-02-22T03:17:41.288Z,85.29
2023-02-22T03:18:36.348Z,85.35
2023-02-22T03:19:31.618Z,85.42
2023-02-22T03:20:26.549Z,85.46
2023-02-22T03:21:21.786Z,85.49
2023-02-22T03:22:16.872Z,85.50
2023-02-22T03:23:12.087Z,85.58
2023-02-22T03:24:07.278Z,85.58
2023-02-22T03:25:02.614Z,85.56
2023-02-22T03:25:57.577Z,85.51
2023-02-22T03:26:52.791Z,85.44
2023-02-22T03:27:47.866Z,85.40
2023-02-22T03:28:43.102Z,85.44
2023-02-22T03:29:38.169Z,85.46
2023-02-22T03:33:29.350Z,86.70
2023-02-22T03:34:24.453Z,86.53
2023-02-22T03:35:19.652Z,86.45
2023-02-22T03:36:14.635Z,86.37
2023-02-22T03:37:09.812Z,86.29
2023-02-22T03:38:05.055Z,86.14
2023-02-22T03:39:00.143Z,86.02
2023-02-22T03:39:55.479Z,85.85
2023-02-22T03:40:50.554Z,85.68
2023-02-22T03:41:45.650Z,85.55
2023-02-22T03:42:40.844Z,85.49
2023-02-22T03:43:36.206Z,85.46
2023-02-22T03:44:31.292Z,85.51
2023-02-22T03:45:26.412Z,85.62
2023-02-22T03:46:21.563Z,85.71
2023-02-22T03:47:16.681Z,85.78
2023-02-22T03:48:11.733Z,85.88
2023-02-22T03:49:07.002Z,85.93
2023-02-22T03:50:02.168Z,86.02
2023-02-22T03:50:57.254Z,86.09
2023-02-22T03:51:52.476Z,86.18
2023-02-22T03:52:47.568Z,86.28
2023-02-22T03:53:42.779Z,86.34
2023-02-22T03:54:37.885Z,86.38
2023-02-22T03:55:33.110Z,86.47
2023-02-22T03:56:28.073Z,86.47
2023-02-22T03:57:23.376Z,86.42
2023-02-22T03:58:18.456Z,86.27
2023-02-22T03:59:13.543Z,86.04
2023-02-22T04:00:08.781Z,85.75
2023-02-22T04:01:03.932Z,85.46
2023-02-22T04:01:59.063Z,85.12
2023-02-22T04:02:54.270Z,84.81
2023-02-22T04:03:49.498Z,84.45
2023-02-22T04:04:44.634Z,84.26
2023-02-22T04:05:39.684Z,84.33
2023-02-22T04:06:34.773Z,84.39
2023-02-22T04:07:30.016Z,84.55
2023-02-22T04:08:25.078Z,84.64
2023-02-22T04:09:20.175Z,84.57
2023-02-22T04:10:15.965Z,84.43
2023-02-22T04:11:10.380Z,84.36
2023-02-22T04:12:05.461Z,84.30
2023-02-22T04:13:00.829Z,84.31
2023-02-22T04:13:55.893Z,84.29
2023-02-22T04:14:50.997Z,84.36
2023-02-22T04:15:46.091Z,84.45
2023-02-22T04:16:41.202Z,84.56
2023-02-22T04:17:36.287Z,84.63
2023-02-22T04:18:31.579Z,84.82
2023-02-22T04:19:26.691Z,85.14
2023-02-22T04:20:21.903Z,85.32
2023-02-22T04:21:17.301Z,85.41
2023-02-22T04:22:12.303Z,85.49
2023-02-22T04:23:07.479Z,85.56
2023-02-22T04:24:02.687Z,85.65
2023-02-22T04:24:57.775Z,85.78
2023-02-22T04:25:52.867Z,85.81
2023-02-22T04:26:47.973Z,85.83
2023-02-22T04:27:43.198Z,85.81
2023-02-22T04:28:38.693Z,85.80
2023-02-22T04:29:33.478Z,85.86
2023-02-22T04:30:28.717Z,85.96
2023-02-22T04:31:23.794Z,86.06
2023-02-22T04:32:18.838Z,86.19
2023-02-22T04:33:13.948Z,86.31
2023-02-22T04:34:09.272Z,86.41
2023-02-22T04:35:04.252Z,86.50
2023-02-22T04:35:59.500Z,86.49
2023-02-22T04:36:54.594Z,86.46
2023-02-22T04:37:49.849Z,86.40
2023-02-22T04:38:44.886Z,86.43
2023-02-22T04:39:40.239Z,86.52
2023-02-22T04:40:35.166Z,86.60
2023-02-22T04:41:30.417Z,86.72
2023-02-22T04:42:25.526Z,86.84
2023-02-22T04:43:20.893Z,86.97
2023-02-22T04:44:16.059Z,87.07
2023-02-22T04:45:11.219Z,87.14
2023-02-22T04:46:06.306Z,87.22
2023-02-22T04:47:01.433Z,87.27
2023-02-22T04:47:56.483Z,87.29
2023-02-22T04:48:51.726Z,87.18
2023-02-22T04:49:46.842Z,87.12
2023-02-22T04:50:42.102Z,87.02
2023-02-22T04:51:37.165Z,86.88
2023-02-22T04:52:32.329Z,86.88
2023-02-22T04:53:27.391Z,86.75
2023-02-22T04:54:22.765Z,86.60
2023-02-22T04:56:45.617Z,86.92
2023-02-22T04:57:39.637Z,86.62
2023-02-22T04:58:34.724Z,86.40
2023-02-22T04:59:29.819Z,86.20
2023-02-22T05:00:25.063Z,85.97
2023-02-22T05:01:20.196Z,85.76
2023-02-22T05:02:15.571Z,85.59
2023-02-22T05:03:10.502Z,85.51
2023-02-22T05:04:05.792Z,85.63
2023-02-22T05:05:00.953Z,85.73
2023-02-22T05:05:56.129Z,85.86
2023-02-22T05:06:53.293Z,85.75
2023-02-22T05:07:46.424Z,85.89
2023-02-22T05:08:41.512Z,86.07
2023-02-22T05:09:36.627Z,86.00
2023-02-22T05:10:31.697Z,85.85
2023-02-22T05:11:26.946Z,85.74
2023-02-22T05:12:22.081Z,85.63
2023-02-22T05:13:17.474Z,85.58
2023-02-22T05:14:12.549Z,85.60
2023-02-22T05:15:07.698Z,85.71
2023-02-22T05:16:02.802Z,85.83
2023-02-22T05:16:58.122Z,86.06
2023-02-22T05:17:54.012Z,86.23
2023-02-22T05:18:48.286Z,86.52
2023-02-22T05:19:43.462Z,86.62
2023-02-22T05:20:38.570Z,86.57
2023-02-22T05:21:33.674Z,86.53
2023-02-22T05:22:28.830Z,86.52
2023-02-22T05:23:23.989Z,86.55
2023-02-22T05:24:19.104Z,86.55
2023-02-22T05:26:40.790Z,87.25
2023-02-22T05:27:35.754Z,87.07
2023-02-22T05:28:30.967Z,87.13
2023-02-22T05:29:26.176Z,87.24
2023-02-22T05:30:21.293Z,87.28
2023-02-22T05:31:16.750Z,87.33
2023-02-22T05:32:11.723Z,87.34
2023-02-22T05:33:06.800Z,87.38
2023-02-22T05:34:01.873Z,87.40
2023-02-22T05:34:56.989Z,87.40
2023-02-22T05:35:52.039Z,87.51
2023-02-22T05:36:47.394Z,87.47
2023-02-22T05:37:42.529Z,87.40
2023-02-22T05:38:37.659Z,87.26
2023-02-22T05:39:32.891Z,87.10
2023-02-22T05:40:27.994Z,87.00
2023-02-22T05:41:23.086Z,86.85
2023-02-22T05:42:18.309Z,86.68
2023-02-22T05:43:13.380Z,86.47
2023-02-22T05:44:08.606Z,86.38
2023-02-22T05:45:03.712Z,86.33
2023-02-22T05:45:58.949Z,86.34
2023-02-22T05:46:54.166Z,86.38
2023-02-22T05:47:49.340Z,86.45
2023-02-22T05:50:28.536Z,87.43
2023-02-22T05:51:25.275Z,87.33
2023-02-22T05:52:18.784Z,87.23
2023-02-22T05:53:13.853Z,87.17
2023-02-22T05:54:09.187Z,87.14
2023-02-22T05:55:04.241Z,87.12
2023-02-22T05:55:59.522Z,87.14
2023-02-22T05:56:54.641Z,87.21
2023-02-22T05:57:50.381Z,87.30
2023-02-22T05:58:45.152Z,87.40
2023-02-22T05:59:40.337Z,87.51
2023-02-22T06:00:35.660Z,87.62
2023-02-22T06:01:30.766Z,87.66
2023-02-22T06:02:25.878Z,87.76
2023-02-22T06:03:21.156Z,87.86
2023-02-22T06:04:16.295Z,87.86
2023-02-22T06:05:11.792Z,87.79
2023-02-22T06:06:06.813Z,87.69
2023-02-22T06:07:02.141Z,87.59
2023-02-22T06:07:57.289Z,87.53
2023-02-22T06:08:52.461Z,87.49
2023-02-22T06:09:47.709Z,87.52
2023-02-22T06:10:42.925Z,87.60
2023-02-22T06:11:37.980Z,87.64
2023-02-22T06:12:33.227Z,87.63
2023-02-22T06:13:28.532Z,87.68
2023-02-22T06:14:23.766Z,87.66
2023-02-22T06:15:18.978Z,87.65
2023-02-22T06:16:14.270Z,87.63
2023-02-22T06:17:09.497Z,87.57
2023-02-22T06:18:04.811Z,87.49
2023-02-22T06:19:00.356Z,87.57
2023-02-22T06:19:55.513Z,87.46
2023-02-22T06:20:50.944Z,87.21
2023-02-22T06:21:46.140Z,86.94
2023-02-22T06:22:41.449Z,86.75
2023-02-22T06:23:36.785Z,86.60
2023-02-22T06:24:32.117Z,86.45
2023-02-22T06:25:27.362Z,86.30
2023-02-22T06:26:22.877Z,86.20
2023-02-22T06:27:18.104Z,86.10
2023-02-22T06:28:13.433Z,86.03
2023-02-22T06:29:08.805Z,86.08
2023-02-22T06:30:04.288Z,86.21
2023-02-22T06:30:59.607Z,86.30
2023-02-22T06:31:54.898Z,86.33
2023-02-22T06:32:50.150Z,86.30
2023-02-22T06:33:45.504Z,86.25
2023-02-22T06:34:40.808Z,86.35
2023-02-22T06:35:36.218Z,86.45
2023-02-22T06:36:31.438Z,86.56
2023-02-22T06:37:26.767Z,86.63
2023-02-22T06:38:22.106Z,86.69
2023-02-22T06:39:17.438Z,86.75
2023-02-22T06:40:12.806Z,86.71
2023-02-22T06:41:08.298Z,86.77
2023-02-22T06:42:03.664Z,86.80
2023-02-22T06:42:58.913Z,86.66
2023-02-22T06:43:54.327Z,86.52
2023-02-22T06:44:51.673Z,86.42
2023-02-22T06:45:45.212Z,86.45
2023-02-22T06:46:40.708Z,86.44
2023-02-22T06:47:35.842Z,86.29
2023-02-22T06:48:31.181Z,86.10
2023-02-22T06:49:26.593Z,86.23
2023-02-22T06:50:21.948Z,86.26
2023-02-22T06:51:17.712Z,86.18
2023-02-22T06:52:12.808Z,86.05
2023-02-22T06:53:08.274Z,85.82
2023-02-22T06:54:03.761Z,85.67
2023-02-22T06:54:59.046Z,85.52
2023-02-22T06:55:54.560Z,85.35
2023-02-22T06:56:49.970Z,85.36
2023-02-22T06:57:45.277Z,85.44
2023-02-22T06:58:40.769Z,85.59
2023-02-22T06:59:36.082Z,85.69
2023-02-22T07:00:31.684Z,85.74
2023-02-22T07:01:27.085Z,85.68
2023-02-22T07:02:22.560Z,85.55
2023-02-22T07:03:17.998Z,85.31
2023-02-22T07:04:13.586Z,85.07
2023-02-22T07:05:09.855Z,84.83
2023-02-22T07:06:04.505Z,84.51
2023-02-22T07:06:59.874Z,84.14
2023-02-22T07:07:56.115Z,83.73
2023-02-22T07:08:50.776Z,83.46
2023-02-22T07:09:46.024Z,83.21
2023-02-22T07:10:41.416Z,82.99
2023-02-22T07:11:36.823Z,82.86
2023-02-22T07:12:32.334Z,82.87
2023-02-22T07:13:27.635Z,82.72
2023-02-22T07:14:23.023Z,82.27
2023-02-22T07:15:18.432Z,82.00
2023-02-22T07:16:14.035Z,81.54
2023-02-22T07:17:09.381Z,81.11
2023-02-22T07:18:05.091Z,80.88
2023-02-22T07:19:00.819Z,80.52
2023-02-22T07:19:55.649Z,80.28
2023-02-22T07:20:50.910Z,80.36
2023-02-22T07:21:46.380Z,80.23
2023-02-22T07:22:41.758Z,80.12
2023-02-22T07:23:37.380Z,80.19
2023-02-22T07:24:32.532Z,80.35
2023-02-22T07:25:28.147Z,80.61
2023-02-22T07:26:23.447Z,80.64
2023-02-22T07:27:18.860Z,80.72
2023-02-22T07:28:14.352Z,80.74
2023-02-22T07:29:09.731Z,80.58
2023-02-22T07:30:05.240Z,80.18
2023-02-22T07:31:00.502Z,79.97
2023-02-22T07:31:56.159Z,79.77
2023-02-22T07:32:51.503Z,79.54
2023-02-22T07:33:46.792Z,79.34
2023-02-22T07:34:42.118Z,79.31
2023-02-22T07:35:37.699Z,79.17
2023-02-22T07:36:33.116Z,79.15
2023-02-22T07:37:28.577Z,79.30
2023-02-22T07:38:24.133Z,79.62
2023-02-22T07:39:20.043Z,79.92
2023-02-22T07:40:14.739Z,80.28
2023-02-22T07:41:10.144Z,80.39
2023-02-22T07:42:05.581Z,80.58
2023-02-22T07:43:01.293Z,80.86
2023-02-22T07:43:56.731Z,81.06
2023-02-22T07:44:51.896Z,80.93
2023-02-22T07:45:47.497Z,80.57
2023-02-22T07:46:43.925Z,80.13
2023-02-22T07:47:39.510Z,79.69
2023-02-22T07:48:34.896Z,78.97
2023-02-22T07:49:30.388Z,78.41
2023-02-22T07:50:25.766Z,77.75
2023-02-22T07:51:23.067Z,77.26
2023-02-22T07:52:16.606Z,77.08
2023-02-22T07:53:11.935Z,76.89
2023-02-22T07:54:07.482Z,76.65
2023-02-22T07:55:02.740Z,76.59
2023-02-22T07:55:58.151Z,76.80
2023-02-22T07:56:53.530Z,77.03
2023-02-22T07:57:49.011Z,77.45
2023-02-22T07:58:44.381Z,77.77
2023-02-22T07:59:39.385Z,78.11
2023-02-22T08:00:34.608Z,78.42
2023-02-22T08:01:30.401Z,78.53
2023-02-22T08:02:26.515Z,78.68
2023-02-22T08:03:21.660Z,78.75
2023-02-22T08:04:16.654Z,79.03
2023-02-22T08:05:11.728Z,79.34
2023-02-22T08:06:06.714Z,79.48
2023-02-22T08:07:02.033Z,79.44
2023-02-22T08:07:57.231Z,79.17
2023-02-22T08:08:51.793Z,79.08
2023-02-22T08:09:46.886Z,79.08
2023-02-22T08:10:41.878Z,79.14
2023-02-22T08:11:36.987Z,78.91
2023-02-22T08:12:32.024Z,79.08
2023-02-22T08:13:27.093Z,78.94
2023-02-22T08:14:22.582Z,79.04
2023-02-22T08:15:17.999Z,78.85
2023-02-22T08:16:13.440Z,78.83
2023-02-22T08:17:09.113Z,78.90
2023-02-22T08:18:04.598Z,79.04
2023-02-22T08:19:00.057Z,78.95
2023-02-22T08:19:55.586Z,78.59
2023-02-22T08:20:50.989Z,78.07
2023-02-22T08:21:46.558Z,77.80
2023-02-22T08:22:41.878Z,77.40
2023-02-22T08:23:37.460Z,77.41
2023-02-22T08:24:32.809Z,77.04
2023-02-22T08:25:31.863Z,76.40
2023-02-22T08:26:27.264Z,76.18
2023-02-22T08:27:22.641Z,76.07
2023-02-22T08:28:18.073Z,76.33
2023-02-22T08:29:13.417Z,76.97
2023-02-22T08:30:08.833Z,77.29
2023-02-22T08:31:04.243Z,77.35
2023-02-22T08:31:59.784Z,77.29
2023-02-22T08:32:55.224Z,77.33
2023-02-22T08:33:51.089Z,77.45
2023-02-22T08:34:45.796Z,77.49
2023-02-22T08:35:41.232Z,77.21
2023-02-22T08:36:36.670Z,76.56
2023-02-22T08:37:32.098Z,76.62
2023-02-22T08:38:27.513Z,76.76
2023-02-22T08:39:23.459Z,76.65
2023-02-22T08:40:18.240Z,76.48
2023-02-22T08:41:13.716Z,76.54
2023-02-22T08:42:09.111Z,76.65
2023-02-22T08:43:04.694Z,77.17
2023-02-22T08:44:00.052Z,77.32
2023-02-22T08:44:55.467Z,77.18
2023-02-22T08:45:50.481Z,76.77
2023-02-22T08:46:46.171Z,76.91
2023-02-22T08:47:40.613Z,77.22
2023-02-22T08:48:35.751Z,77.24
2023-02-22T08:49:31.566Z,77.11
2023-02-22T08:50:25.885Z,77.09
2023-02-22T08:51:21.031Z,77.26
2023-02-22T08:52:16.748Z,77.22
2023-02-22T08:53:12.089Z,77.06
2023-02-22T08:54:07.519Z,77.02
2023-02-22T08:55:02.943Z,77.20
2023-02-22T08:55:58.716Z,77.36
2023-02-22T08:56:54.220Z,77.50
2023-02-22T08:57:49.629Z,77.46
2023-02-22T08:58:45.061Z,77.54
2023-02-22T08:59:40.496Z,77.78
2023-02-22T09:00:35.942Z,77.96
2023-02-22T09:01:33.345Z,77.99
2023-02-22T09:02:26.956Z,77.97
2023-02-22T09:03:22.403Z,77.74
2023-02-22T09:04:17.992Z,77.57
2023-02-22T09:05:13.137Z,77.68
2023-02-22T09:06:08.221Z,77.94
2023-02-22T09:07:03.201Z,78.17
2023-02-22T09:07:58.352Z,78.41
2023-02-22T09:08:53.724Z,78.59
2023-02-22T09:09:48.399Z,78.55
2023-02-22T09:10:43.487Z,78.29
2023-02-22T09:11:40.732Z,77.85
2023-02-22T09:12:35.996Z,78.02
2023-02-22T09:13:31.094Z,77.81
2023-02-22T09:14:26.103Z,77.21
2023-02-22T09:15:21.187Z,76.58
2023-02-22T09:16:16.312Z,76.26
2023-02-22T09:17:11.320Z,76.10
2023-02-22T09:18:06.412Z,75.79
2023-02-22T09:19:01.767Z,75.84
2023-02-22T09:19:57.266Z,75.84
2023-02-22T09:20:52.973Z,75.69
2023-02-22T09:21:49.178Z,75.43
2023-02-22T09:22:43.825Z,75.33
2023-02-22T09:23:39.893Z,75.21
2023-02-22T09:24:35.406Z,75.20
2023-02-22T09:25:30.941Z,75.39
2023-02-22T09:26:26.357Z,75.42
2023-02-22T09:27:21.893Z,75.54
2023-02-22T09:28:16.972Z,75.71
2023-02-22T09:29:12.075Z,76.06
2023-02-22T09:30:07.079Z,76.24
2023-02-22T09:31:02.246Z,76.03
2023-02-22T09:31:57.530Z,75.54
2023-02-22T09:32:52.585Z,74.99
2023-02-22T09:33:47.596Z,74.73
2023-02-22T09:34:42.970Z,74.32
2023-02-22T09:35:38.157Z,73.69
2023-02-22T09:36:33.370Z,73.23
2023-02-22T09:37:28.320Z,72.93
2023-02-22T09:38:24.346Z,72.99
2023-02-22T09:39:19.975Z,72.79
2023-02-22T09:40:15.225Z,72.03
2023-02-22T09:41:10.713Z,72.02
2023-02-22T09:42:06.218Z,72.85
2023-02-22T09:43:01.875Z,72.40
2023-02-22T09:43:57.414Z,72.08
2023-02-22T09:44:53.148Z,71.96
2023-02-22T09:45:48.489Z,72.44
2023-02-22T09:46:43.861Z,72.81
2023-02-22T09:47:39.320Z,72.68
2023-02-22T09:48:34.800Z,72.30
2023-02-22T09:49:30.297Z,72.23
2023-02-22T09:50:25.802Z,72.22
2023-02-22T09:51:21.071Z,71.68
2023-02-22T09:52:15.851Z,71.50
2023-02-22T09:53:10.905Z,71.69
2023-02-22T09:54:05.972Z,72.51
2023-02-22T09:55:01.231Z,72.45
2023-02-22T09:55:56.233Z,72.11
2023-02-22T09:56:51.393Z,70.76
2023-02-22T09:57:48.359Z,69.35
2023-02-22T09:58:43.457Z,68.36
2023-02-22T09:59:38.536Z,67.49
2023-02-22T10:00:33.617Z,66.60
2023-02-22T10:01:28.656Z,66.50
2023-02-22T10:02:23.713Z,66.04
2023-02-22T10:03:21.234Z,65.16
2023-02-22T10:04:13.928Z,64.47
2023-02-22T10:05:09.008Z,64.90
2023-02-22T10:06:04.157Z,64.98
2023-02-22T10:06:59.100Z,65.03
2023-02-22T10:07:54.293Z,65.11
2023-02-22T10:08:49.195Z,65.18
2023-02-22T10:09:44.782Z,65.79
2023-02-22T10:10:40.185Z,66.52
2023-02-22T10:11:35.759Z,67.00
2023-02-22T10:12:31.160Z,67.01
2023-02-22T10:13:26.826Z,67.46
2023-02-22T10:14:22.271Z,67.74
2023-02-22T10:15:17.782Z,67.71
2023-02-22T10:16:13.417Z,68.02
2023-02-22T10:17:09.187Z,68.21
2023-02-22T10:18:04.281Z,67.74
2023-02-22T10:18:59.857Z,67.75
2023-02-22T10:19:55.323Z,68.19
2023-02-22T10:20:54.384Z,68.29
2023-02-22T10:21:49.791Z,67.87
2023-02-22T10:22:45.204Z,66.94
2023-02-22T10:23:40.920Z,66.85
2023-02-22T10:24:36.161Z,66.09
2023-02-22T10:25:31.652Z,66.57
2023-02-22T10:26:27.091Z,66.38
2023-02-22T10:27:22.690Z,66.83
2023-02-22T10:28:18.184Z,67.13
2023-02-22T10:29:16.811Z,66.85
2023-02-22T10:30:23.834Z,66.09
2023-02-22T10:31:08.366Z,65.91
2023-02-22T10:32:02.368Z,66.02
2023-02-22T10:32:57.294Z,66.57
2023-02-22T10:33:52.452Z,67.05
2023-02-22T10:34:47.410Z,67.22
2023-02-22T10:35:42.489Z,67.26
2023-02-22T10:36:37.582Z,67.28
2023-02-22T10:37:32.682Z,67.23
2023-02-22T10:38:27.686Z,67.16
2023-02-22T10:39:22.711Z,67.26
2023-02-22T10:40:17.681Z,66.86
2023-02-22T10:41:15.206Z,66.27
2023-02-22T10:42:09.820Z,65.76
2023-02-22T10:43:05.446Z,66.03
2023-02-22T10:44:00.779Z,65.92
2023-02-22T10:44:56.319Z,65.92
2023-02-22T10:45:51.798Z,66.01
2023-02-22T10:46:47.432Z,65.98
2023-02-22T10:47:42.883Z,65.76
2023-02-22T10:48:38.202Z,65.69
2023-02-22T10:49:33.618Z,65.71
2023-02-22T10:50:33.156Z,65.31
2023-02-22T10:51:28.518Z,65.47
2023-02-22T10:52:24.068Z,65.69
2023-02-22T10:53:19.720Z,65.52
2023-02-22T10:54:15.125Z,65.28
2023-02-22T10:55:15.413Z,64.96
2023-02-22T10:56:07.522Z,64.90
2023-02-22T10:57:01.791Z,64.62
2023-02-22T10:57:57.116Z,64.34
2023-02-22T10:58:52.623Z,64.05
2023-02-22T10:59:47.908Z,63.67
2023-02-22T11:00:44.505Z,63.72
2023-02-22T11:01:39.207Z,63.42
2023-02-22T11:02:34.554Z,63.14
2023-02-22T11:03:30.233Z,63.39
2023-02-22T11:04:25.262Z,63.74
2023-02-22T11:05:20.414Z,64.56
2023-02-22T11:06:15.522Z,65.14
2023-02-22T11:07:10.572Z,65.69
2023-02-22T11:08:06.272Z,65.95
2023-02-22T11:09:00.781Z,66.39
2023-02-22T11:09:55.722Z,66.81
2023-02-22T11:10:50.788Z,67.01
2023-02-22T11:11:46.076Z,67.23
2023-02-22T11:12:41.079Z,67.27
2023-02-22T11:13:37.422Z,67.42
2023-02-22T11:14:32.466Z,67.60
2023-02-22T11:15:27.509Z,67.59
2023-02-22T11:16:22.664Z,67.61
2023-02-22T11:17:18.548Z,67.55
2023-02-22T11:18:13.898Z,67.18
2023-02-22T11:19:09.424Z,66.97
2023-02-22T11:20:04.967Z,66.51
2023-02-22T11:21:00.446Z,66.24
2023-02-22T11:21:55.962Z,66.19
2023-02-22T11:22:51.308Z,66.25
2023-02-22T11:23:46.717Z,66.14
2023-02-22T11:24:49.008Z,65.93
2023-02-22T11:25:38.624Z,65.11
2023-02-22T11:26:32.986Z,65.11
2023-02-22T11:27:28.512Z,65.30
2023-02-22T11:28:23.986Z,64.55
2023-02-22T11:29:19.563Z,64.26
2023-02-22T11:30:14.781Z,64.24
2023-02-22T11:31:09.681Z,64.39
2023-02-22T11:32:04.626Z,64.46
2023-02-22T11:32:59.646Z,64.36
2023-02-22T11:33:54.778Z,64.26
2023-02-22T11:34:52.853Z,64.21
2023-02-22T11:35:45.680Z,63.72
2023-02-22T11:36:41.358Z,63.42
2023-02-22T11:37:36.317Z,63.21
2023-02-22T11:38:31.393Z,63.24
2023-02-22T11:39:26.380Z,63.30
2023-02-22T11:40:22.416Z,62.87
2023-02-22T11:41:18.089Z,62.82
2023-02-22T11:42:13.386Z,62.38
2023-02-22T11:43:08.722Z,62.06
2023-02-22T11:44:04.168Z,61.98
2023-02-22T11:44:59.516Z,61.56
2023-02-22T11:45:58.928Z,60.89
2023-02-22T11:46:51.495Z,59.55
2023-02-22T11:47:45.954Z,58.79
2023-02-22T11:48:41.254Z,57.94
2023-02-22T11:49:36.734Z,56.68
2023-02-22T11:50:32.245Z,57.11
2023-02-22T11:51:27.935Z,57.76
2023-02-22T11:52:25.016Z,57.90
2023-02-22T11:53:18.569Z,57.35
2023-02-22T11:54:13.574Z,58.21
2023-02-22T11:55:08.644Z,58.22
2023-02-22T11:56:03.631Z,58.10
2023-02-22T11:56:58.680Z,58.92
2023-02-22T11:57:53.643Z,59.00
2023-02-22T11:58:48.707Z,58.29
2023-02-22T11:59:45.780Z,57.75
2023-02-22T12:00:40.815Z,57.79
2023-02-22T12:01:35.899Z,57.92